Time;durP1;ratioP1;P1;durP2;ratioP2;P2;SDS_P1;SDS_P2;PMS_P1;PMS_P2;Temp;Humidity;BMP_temperature;BMP_pressure;BME280_temperature;BME280_humidity;BME280_pressure;Samples;Min_cycle;Max_cycle;Signal;HPM_P1;HPM_P2
2022/10/25 00:00:15;;;;;;;;;;;;;;;;;;5016310;28;19984;-76
2022/10/25 00:02:41;;;;;;;;;;;;;;;;;;5019412;28;19948;-77
2022/10/25 00:05:11;;;;;;;;;;;;;;;;;;5016969;28;20410;-78
2022/10/25 00:07:37;;;;;;;;;;;;;;;;;;5016441;28;19925;-78
2022/10/25 00:10:04;;;;;;;;;;;;;;;;;;5015795;28;19948;-78
2022/10/25 00:12:30;;;;;;;;;;;;;;;;;;5017416;28;19973;-78
2022/10/25 00:15:00;;;;;;;;;;;;;;;;;;5020585;28;19969;-79
2022/10/25 00:17:28;;;;;;;;;;;;;;;;;;5019893;28;19977;-77
2022/10/25 00:19:54;;;;;;;;;;;;;;;;;;5015458;28;20460;-78
2022/10/25 00:22:21;;;;;;;;;;;;;;;;;;5015287;28;19980;-77
2022/10/25 00:24:47;;;;;;;;;;;;;;;;;;5015956;28;20419;-78
2022/10/25 00:27:13;;;;;;;;;;;;;;;;;;5016210;28;20380;-78
2022/10/25 00:29:40;;;;;;;;;;;;;;;;;;5016682;28;20377;-80
2022/10/25 00:32:06;;;;;;;;;;;;;;;;;;5016572;28;20569;-79
2022/10/25 00:34:34;;;;;;;;;;;;;;;;;;5024255;28;20398;-78
2022/10/25 00:37:00;;;;;;;;;;;;;;;;;;5018217;28;19969;-79
2022/10/25 00:39:27;;;;;;;;;;;;;;;;;;5016697;28;20367;-79
2022/10/25 00:41:53;;;;;;;;;;;;;;;;;;5017284;28;19969;-79
2022/10/25 00:44:45;;;;;;;;;;;;;;;;;;5017481;28;19999;-78
2022/10/25 00:47:15;;;;;;;;;;;;;;;;;;5016641;28;19925;-78
2022/10/25 00:49:43;;;;;;;;;;;;;;;;;;5017657;28;19932;-78
2022/10/25 00:52:10;;;;;;;;;;;;;;;;;;5016418;28;19973;-79
2022/10/25 00:54:39;;;;;;;;;;;;;;;;;;5016374;28;19980;-78
2022/10/25 00:57:09;;;;;;;;;;;;;;;;;;5020098;28;19972;-77
2022/10/25 00:59:36;;;;;;;;;;;;;;;;;;5019700;28;20007;-76
2022/10/25 01:02:02;;;;;;;;;;;;;;;;;;5018965;28;20365;-77
2022/10/25 01:04:29;;;;;;;;;;;;;;;;;;5036864;28;19960;-78
2022/10/25 01:06:57;;;;;;;;;;;;;;;;;;5035479;28;19925;-78
2022/10/25 01:09:24;;;;;;;;;;;;;;;;;;5034931;28;19971;-79
2022/10/25 01:11:51;;;;;;;;;;;;;;;;;;5035808;28;19925;-79
2022/10/25 01:14:18;;;;;;;;;;;;;;;;;;5057156;28;19924;-76
2022/10/25 01:16:48;;;;;;;;;;;;;;;;;;5037915;28;19948;-76
2022/10/25 01:19:31;;;;;;;;;;;;;;;;;;5027445;28;20373;-77
2022/10/25 01:22:02;;;;;;;;;;;;;;;;;;5013867;28;19926;-78
2022/10/25 01:24:47;;;;;;;;;;;;;;;;;;5015792;28;20016;-79
2022/10/25 01:27:32;;;;;;;;;;;;;;;;;;5014822;28;19964;-79
2022/10/25 01:30:03;;;;;;;;;;;;;;;;;;5015201;28;20414;-80
2022/10/25 01:32:34;;;;;;;;;;;;;;;;;;5015495;28;19932;-79
2022/10/25 01:35:05;;;;;;;;;;;;;;;;;;5015227;28;19925;-79
2022/10/25 01:37:36;;;;;;;;;;;;;;;;;;5014461;28;20016;-78
2022/10/25 01:40:06;;;;;;;;;;;;;;;;;;5015474;28;19981;-79
2022/10/25 01:42:34;;;;;;;;;;;;;;;;;;5014636;28;20377;-79
2022/10/25 01:45:06;;;;;;;;;;;;;;;;;;5014654;28;19968;-79
2022/10/25 01:47:37;;;;;;;;;;;;;;;;;;5014732;28;19972;-79
2022/10/25 01:50:05;;;;;;;;;;;;;;;;;;5015030;28;19968;-79
2022/10/25 01:52:32;;;;;;;;;;;;;;;;;;5015083;28;19936;-78
2022/10/25 01:54:58;;;;;;;;;;;;;;;;;;5013909;28;19983;-77
2022/10/25 01:57:35;;;;;;;;;;;;;;;;;;5014415;28;19947;-79
2022/10/25 02:00:06;;;;;;;;;;;;;;;;;;5014888;28;19977;-79
2022/10/25 02:02:38;;;;;;;;;;;;;;;;;;5016310;28;19925;-78
2022/10/25 02:05:09;;;;;;;;;;;;;;;;;;5035088;28;19968;-78
2022/10/25 02:07:37;;;;;;;;;;;;;;;;;;5034022;28;19932;-79
2022/10/25 02:10:06;;;;;;;;;;;;;;;;;;5034333;28;20379;-79
2022/10/25 02:12:38;;;;;;;;;;;;;;;;;;5034371;28;19947;-78
2022/10/25 02:15:07;;;;;;;;;;;;;;;;;;5034296;28;19977;-78
2022/10/25 02:17:36;;;;;;;;;;;;;;;;;;5033982;28;19964;-79
2022/10/25 02:20:04;;;;;;;;;;;;;;;;;;5034221;28;20015;-80
2022/10/25 02:22:32;;;;;;;;;;;;;;;;;;5033868;28;19990;-80
2022/10/25 02:24:59;;;;;;;;;;;;;;;;;;5033956;28;19972;-79
2022/10/25 02:27:26;;;;;;;;;;;;;;;;;;5033723;28;19931;-78
2022/10/25 02:29:53;;;;;;;;;;;;;;;;;;5033886;28;19972;-79
2022/10/25 02:32:20;;;;;;;;;;;;;;;;;;5034402;28;20308;-77
2022/10/25 02:34:48;;;;;;;;;;;;;;;;;;5034121;28;20444;-78
2022/10/25 02:37:15;;;;;;;;;;;;;;;;;;5024081;28;19971;-79
2022/10/25 02:39:42;;;;;;;;;;;;;;;;;;5014078;28;19931;-79
2022/10/25 02:42:08;;;;;;;;;;;;;;;;;;5016856;28;20039;-77
2022/10/25 02:44:34;;;;;;;;;;;;;;;;;;5017678;28;19961;-77
2022/10/25 02:47:01;;;;;;;;;;;;;;;;;;5016823;28;20483;-79
2022/10/25 02:49:27;;;;;;;;;;;;;;;;;;5014518;28;19933;-79
2022/10/25 02:51:55;;;;;;;;;;;;;;;;;;5014538;28;19977;-79
2022/10/25 02:54:22;;;;;;;;;;;;;;;;;;5014301;28;19973;-79
2022/10/25 02:56:51;;;;;;;;;;;;;;;;;;5014304;28;19980;-79
2022/10/25 02:59:18;;;;;;;;;;;;;;;;;;5014824;28;19929;-77
2022/10/25 03:01:44;;;;;;;;;;;;;;;;;;5015092;28;20440;-78
2022/10/25 03:04:10;;;;;;;;;;;;;;;;;;5033587;28;19925;-79
2022/10/25 03:06:37;;;;;;;;;;;;;;;;;;5038649;28;20004;-77
2022/10/25 03:09:05;;;;;;;;;;;;;;;;;;5037381;28;20345;-79
2022/10/25 03:11:31;;;;;;;;;;;;;;;;;;5037633;28;19988;-78
2022/10/25 03:13:58;;;;;;;;;;;;;;;;;;5038013;28;20363;-78
2022/10/25 03:16:24;;;;;;;;;;;;;;;;;;5038176;28;19925;-79
2022/10/25 03:18:51;;;;;;;;;;;;;;;;;;5037240;28;19983;-79
2022/10/25 03:21:17;;;;;;;;;;;;;;;;;;5038246;28;19979;-79
2022/10/25 03:23:44;;;;;;;;;;;;;;;;;;5038280;28;20012;-77
2022/10/25 03:26:11;;;;;;;;;;;;;;;;;;5038595;28;19968;-78
2022/10/25 03:28:38;;;;;;;;;;;;;;;;;;5038287;28;19968;-78
2022/10/25 03:31:10;;;;;;;;;;;;;;;;;;5038087;28;20013;-77
2022/10/25 03:33:36;;;;;;;;;;;;;;;;;;5038053;28;20370;-78
2022/10/25 03:36:03;;;;;;;;;;;;;;;;;;5037822;28;20372;-78
2022/10/25 03:38:29;;;;;;;;;;;;;;;;;;5037486;28;19967;-78
2022/10/25 03:40:56;;;;;;;;;;;;;;;;;;5037685;28;19925;-79
2022/10/25 03:43:23;;;;;;;;;;;;;;;;;;5038646;28;19969;-79
2022/10/25 03:45:50;;;;;;;;;;;;;;;;;;5037936;28;20008;-78
2022/10/25 03:48:16;;;;;;;;;;;;;;;;;;5037201;28;19971;-79
2022/10/25 03:50:43;;;;;;;;;;;;;;;;;;5037627;28;20024;-77
2022/10/25 03:53:09;;;;;;;;;;;;;;;;;;5037850;28;19985;-78
2022/10/25 03:55:36;;;;;;;;;;;;;;;;;;5037743;28;19961;-77
2022/10/25 03:58:03;;;;;;;;;;;;;;;;;;5036873;28;19925;-79
2022/10/25 04:00:30;;;;;;;;;;;;;;;;;;5036888;28;19989;-81
2022/10/25 04:02:57;;;;;;;;;;;;;;;;;;5038772;28;19980;-77
2022/10/25 04:05:24;;;;;;;;;;;;;;;;;;5040184;28;19920;-78
2022/10/25 04:07:50;;;;;;;;;;;;;;;;;;5035746;28;19987;-78
2022/10/25 04:10:18;;;;;;;;;;;;;;;;;;5025210;28;20440;-78
2022/10/25 04:12:44;;;;;;;;;;;;;;;;;;5018051;28;19932;-78
2022/10/25 04:15:11;;;;;;;;;;;;;;;;;;5016269;28;20016;-78
2022/10/25 04:17:38;;;;;;;;;;;;;;;;;;5015373;28;19932;-78
2022/10/25 04:20:05;;;;;;;;;;;;;;;;;;5017066;28;19948;-79
2022/10/25 04:22:32;;;;;;;;;;;;;;;;;;5016854;28;20393;-78
2022/10/25 04:24:58;;;;;;;;;;;;;;;;;;5016859;28;19929;-78
2022/10/25 04:27:25;;;;;;;;;;;;;;;;;;5016679;28;19972;-78
2022/10/25 04:29:51;;;;;;;;;;;;;;;;;;5017811;28;19979;-79
2022/10/25 04:32:18;;;;;;;;;;;;;;;;;;5016691;28;19965;-79
2022/10/25 04:34:45;;;;;;;;;;;;;;;;;;5016796;28;19976;-79
2022/10/25 04:37:12;;;;;;;;;;;;;;;;;;5017321;28;19961;-78
2022/10/25 04:39:38;;;;;;;;;;;;;;;;;;5016194;28;20552;-78
2022/10/25 04:42:05;;;;;;;;;;;;;;;;;;5016680;28;20344;-78
2022/10/25 04:44:31;;;;;;;;;;;;;;;;;;5016831;28;20377;-79
2022/10/25 04:46:58;;;;;;;;;;;;;;;;;;5016447;28;19929;-78
2022/10/25 04:49:24;;;;;;;;;;;;;;;;;;5017032;28;20012;-77
2022/10/25 04:51:52;;;;;;;;;;;;;;;;;;5017424;28;19988;-78
2022/10/25 04:54:19;;;;;;;;;;;;;;;;;;5017593;28;20016;-80
2022/10/25 04:56:45;;;;;;;;;;;;;;;;;;5016870;28;19938;-79
2022/10/25 04:59:11;;;;;;;;;;;;;;;;;;5017712;28;19926;-78
2022/10/25 05:01:38;;;;;;;;;;;;;;;;;;5016568;28;20037;-78
2022/10/25 05:04:04;;;;;;;;;;;;;;;;;;5031410;28;20419;-79
2022/10/25 05:06:31;;;;;;;;;;;;;;;;;;5035935;28;19925;-77
2022/10/25 05:08:59;;;;;;;;;;;;;;;;;;5027549;28;19988;-79
2022/10/25 05:11:25;;;;;;;;;;;;;;;;;;5026185;28;19929;-79
2022/10/25 05:13:52;;;;;;;;;;;;;;;;;;5026421;28;19957;-79
2022/10/25 05:16:20;;;;;;;;;;;;;;;;;;5033170;28;19929;-78
2022/10/25 05:18:47;;;;;;;;;;;;;;;;;;5036054;28;19925;-79
2022/10/25 05:21:14;;;;;;;;;;;;;;;;;;5036664;28;19971;-78
2022/10/25 05:23:41;;;;;;;;;;;;;;;;;;5037351;28;19979;-79
2022/10/25 05:26:10;;;;;;;;;;;;;;;;;;5038145;28;19987;-80
2022/10/25 05:28:37;;;;;;;;;;;;;;;;;;5038205;28;20401;-78
2022/10/25 05:31:04;;;;;;;;;;;;;;;;;;5032390;28;19940;-78
2022/10/25 05:33:30;;;;;;;;;;;;;;;;;;5020957;28;19931;-77
2022/10/25 05:35:58;;;;;;;;;;;;;;;;;;5020009;28;19961;-77
2022/10/25 05:38:25;;;;;;;;;;;;;;;;;;5018628;28;19968;-78
2022/10/25 05:40:54;;;;;;;;;;;;;;;;;;5019431;28;19960;-78
2022/10/25 05:43:22;;;;;;;;;;;;;;;;;;5019457;28;20036;-78
2022/10/25 05:45:49;;;;;;;;;;;;;;;;;;5019860;28;19979;-79
2022/10/25 05:48:16;;;;;;;;;;;;;;;;;;5019395;28;20300;-77
2022/10/25 05:50:42;;;;;;;;;;;;;;;;;;5019920;28;19926;-78
2022/10/25 05:53:09;;;;;;;;;;;;;;;;;;5019800;28;19971;-78
2022/10/25 05:55:35;;;;;;;;;;;;;;;;;;5020230;28;19975;-78
2022/10/25 05:58:02;;;;;;;;;;;;;;;;;;5019650;28;19925;-76
2022/10/25 06:00:30;;;;;;;;;;;;;;;;;;5020153;28;19964;-76
2022/10/25 06:02:56;;;;;;;;;;;;;;;;;;5021301;28;19957;-76
2022/10/25 06:05:22;;;;;;;;;;;;;;;;;;5020444;28;20028;-77
2022/10/25 06:07:49;;;;;;;;;;;;;;;;;;5018451;28;19964;-78
2022/10/25 06:10:15;;;;;;;;;;;;;;;;;;5016419;28;19932;-78
2022/10/25 06:12:42;;;;;;;;;;;;;;;;;;5016208;28;19979;-78
2022/10/25 06:15:09;;;;;;;;;;;;;;;;;;5015907;28;20025;-78
2022/10/25 06:17:38;;;;;;;;;;;;;;;;;;5015894;28;19948;-78
2022/10/25 06:20:07;;;;;;;;;;;;;;;;;;5017305;28;20202;-76
2022/10/25 06:22:33;;;;;;;;;;;;;;;;;;5018912;28;19926;-76
2022/10/25 06:25:00;;;;;;;;;;;;;;;;;;5018887;28;19988;-76
2022/10/25 06:27:26;;;;;;;;;;;;;;;;;;5020396;28;19960;-76
2022/10/25 06:29:52;;;;;;;;;;;;;;;;;;5022943;28;20024;-77
2022/10/25 06:32:19;;;;;;;;;;;;;;;;;;5021987;28;19965;-76
2022/10/25 06:34:47;;;;;;;;;;;;;;;;;;5021608;28;19994;-77
2022/10/25 06:37:14;;;;;;;;;;;;;;;;;;5022171;28;19960;-78
2022/10/25 06:39:40;;;;;;;;;;;;;;;;;;5021363;28;20369;-78
2022/10/25 06:42:07;;;;;;;;;;;;;;;;;;5022323;28;19963;-78
2022/10/25 06:44:33;;;;;;;;;;;;;;;;;;5019659;28;20416;-77
2022/10/25 06:47:01;;;;;;;;;;;;;;;;;;5018641;28;20040;-78
2022/10/25 06:49:28;;;;;;;;;;;;;;;;;;5019216;28;20411;-78
2022/10/25 06:51:55;;;;;;;;;;;;;;;;;;5018724;28;19925;-78
2022/10/25 06:54:24;;;;;;;;;;;;;;;;;;5019110;28;20025;-77
2022/10/25 06:56:50;;;;;;;;;;;;;;;;;;5018773;28;19931;-79
2022/10/25 06:59:19;;;;;;;;;;;;;;;;;;5019187;28;19926;-78
2022/10/25 07:01:45;;;;;;;;;;;;;;;;;;5018772;28;19930;-78
2022/10/25 07:04:12;;;;;;;;;;;;;;;;;;5034664;28;19931;-78
2022/10/25 07:06:38;;;;;;;;;;;;;;;;;;5038574;28;19926;-78
2022/10/25 07:09:08;;;;;;;;;;;;;;;;;;5038152;28;20020;-77
2022/10/25 07:11:34;;;;;;;;;;;;;;;;;;5038512;28;19925;-79
2022/10/25 07:14:03;;;;;;;;;;;;;;;;;;5038101;28;19972;-77
2022/10/25 07:16:29;;;;;;;;;;;;;;;;;;5038479;28;20350;-78
2022/10/25 07:18:58;;;;;;;;;;;;;;;;;;5037901;28;19968;-78
2022/10/25 07:21:24;;;;;;;;;;;;;;;;;;5044512;28;19968;-75
2022/10/25 07:23:51;;;;;;;;;;;;;;;;;;5046776;28;19952;-75
2022/10/25 07:26:20;;;;;;;;;;;;;;;;;;5040331;28;19924;-76
2022/10/25 07:28:47;;;;;;;;;;;;;;;;;;5024434;28;20001;-76
2022/10/25 07:31:13;;;;;;;;;;;;;;;;;;5016798;28;20012;-78
2022/10/25 07:33:40;;;;;;;;;;;;;;;;;;5016516;28;19977;-78
2022/10/25 07:36:07;;;;;;;;;;;;;;;;;;5017158;28;20008;-78
2022/10/25 07:38:33;;;;;;;;;;;;;;;;;;5015891;28;19925;-77
2022/10/25 07:41:00;;;;;;;;;;;;;;;;;;5017173;28;20029;-79
2022/10/25 07:43:28;;;;;;;;;;;;;;;;;;5017317;28;20304;-78
2022/10/25 07:45:55;;;;;;;;;;;;;;;;;;5018332;28;19972;-77
2022/10/25 07:48:21;;;;;;;;;;;;;;;;;;5015997;28;20016;-79
2022/10/25 07:50:48;;;;;;;;;;;;;;;;;;5018091;28;20024;-79
2022/10/25 07:53:14;;;;;;;;;;;;;;;;;;5018166;28;20012;-78
2022/10/25 07:55:41;;;;;;;;;;;;;;;;;;5017596;28;19925;-78
2022/10/25 07:58:08;;;;;;;;;;;;;;;;;;5017655;28;19925;-79
2022/10/25 08:00:36;;;;;;;;;;;;;;;;;;5017508;28;19935;-79
2022/10/25 08:03:03;;;;;;;;;;;;;;;;;;5024300;28;19925;-79
2022/10/25 08:05:29;;;;;;;;;;;;;;;;;;5037541;28;20359;-78
2022/10/25 08:07:56;;;;;;;;;;;;;;;;;;5036957;28;20019;-79
2022/10/25 08:10:22;;;;;;;;;;;;;;;;;;5036998;28;19932;-79
2022/10/25 08:12:49;;;;;;;;;;;;;;;;;;5037360;28;19983;-78
2022/10/25 08:15:16;;;;;;;;;;;;;;;;;;5037902;28;20041;-77
2022/10/25 08:17:44;;;;;;;;;;;;;;;;;;5037091;28;19925;-78
2022/10/25 08:20:10;;;;;;;;;;;;;;;;;;5037768;28;19929;-79
2022/10/25 08:22:36;;;;;;;;;;;;;;;;;;5037282;28;20017;-78
2022/10/25 08:25:04;;;;;;;;;;;;;;;;;;5037580;28;20028;-79
2022/10/25 08:27:30;;;;;;;;;;;;;;;;;;5036890;28;19929;-78
2022/10/25 08:29:57;;;;;;;;;;;;;;;;;;5036931;28;19925;-79
2022/10/25 08:32:23;;;;;;;;;;;;;;;;;;5037347;28;19985;-79
2022/10/25 08:34:51;;;;;;;;;;;;;;;;;;5036938;28;19936;-79
2022/10/25 08:37:17;;;;;;;;;;;;;;;;;;5036799;28;20008;-78
2022/10/25 08:39:44;;;;;;;;;;;;;;;;;;5036627;28;19972;-80
2022/10/25 08:42:13;;;;;;;;;;;;;;;;;;5037481;28;19925;-80
2022/10/25 08:44:44;;;;;;;;;;;;;;;;;;5035337;28;19925;-78
2022/10/25 08:47:13;;;;;;;;;;;;;;;;;;5035457;28;20016;-78
2022/10/25 08:49:46;;;;;;;;;;;;;;;;;;5035245;28;19976;-78
2022/10/25 08:52:14;;;;;;;;;;;;;;;;;;5036164;28;19925;-79
2022/10/25 08:54:43;;;;;;;;;;;;;;;;;;5036648;28;20507;-79
2022/10/25 08:57:13;;;;;;;;;;;;;;;;;;5037019;28;20476;-79
2022/10/25 08:59:41;;;;;;;;;;;;;;;;;;5037001;28;19985;-78
2022/10/25 09:02:12;;;;;;;;;;;;;;;;;;5039618;28;19925;-78
2022/10/25 09:04:39;;;;;;;;;;;;;;;;;;5017440;28;20448;-77
2022/10/25 09:07:10;;;;;;;;;;;;;;;;;;5016980;28;20361;-78
2022/10/25 09:09:42;;;;;;;;;;;;;;;;;;5016478;28;20009;-79
2022/10/25 09:12:15;;;;;;;;;;;;;;;;;;5017339;28;20308;-79
2022/10/25 09:14:45;;;;;;;;;;;;;;;;;;5016383;28;20311;-79
2022/10/25 09:17:15;;;;;;;;;;;;;;;;;;5016658;28;20379;-78
2022/10/25 09:19:47;;;;;;;;;;;;;;;;;;5015065;28;19952;-78
2022/10/25 09:22:25;;;;;;;;;;;;;;;;;;5193511;27;20005;-58
2022/10/25 09:24:54;;;;;;;;;;;;;;;;;;5193454;27;19966;-59
2022/10/25 09:27:24;;;;;;;;;;;;;;;;;;5190545;27;19923;-59
2022/10/25 09:29:55;;;;;;;;;;;;;;;;;;5172883;27;20381;-59
2022/10/25 09:32:23;;;;;;;;;;;;;;;;;;5172475;27;19927;-59
2022/10/25 09:34:50;;;;;;;;;;;;;;;;;;5172091;27;19976;-58
2022/10/25 09:37:17;;;;;;;;;;;;;;;;;;5171851;27;19968;-57
2022/10/25 09:39:47;;;;;;;;;;;;;;;;;;5171907;27;20057;-59
2022/10/25 09:42:17;;;;;;;;;;;;;;;;;;5171950;27;19923;-59
2022/10/25 09:44:45;;;;;;;;;;;;;;;;;;5171723;27;20379;-59
2022/10/25 09:47:17;;;;;;;;;;;;;;;;;;5171647;27;19923;-59
2022/10/25 09:49:47;;;;;;;;;;;;;;;;;;5171856;27;19923;-59
2022/10/25 09:52:17;;;;;;;;;;;;;;;;;;5171604;27;19995;-58
2022/10/25 09:54:47;;;;;;;;;;;;;;;;;;5171730;27;20344;-57
2022/10/25 09:57:14;;;;;;;;;;;;;;;;;;5171676;27;19930;-57
2022/10/25 09:59:40;;;;;;;;;;;;;;;;;;5171658;27;19948;-58
2022/10/25 10:02:11;;;;;;;;;;;;;;;;;;5171524;27;19923;-59
2022/10/25 10:04:38;;;;;;;;;;;;;;;;;;5172220;27;20448;-59
2022/10/25 10:07:08;;;;;;;;;;;;;;;;;;5171736;27;19923;-58
2022/10/25 10:09:36;;;;;;;;;;;;;;;;;;5166162;22;19927;-54
2022/10/25 10:12:05;;;;;;;;;;;;;;;;;;5118585;22;19924;-54
2022/10/25 10:14:36;;;;;;;;;;;;;;;;;;5109942;28;19924;-58
2022/10/25 10:17:02;;;;;;;;;;;;;;;;;;5109604;28;19971;-57
2022/10/25 10:19:30;;;;;;;;;;;;;;;;;;5129499;27;20334;-57
2022/10/25 10:21:58;;;;;;;;;;;;;;;;;;5129617;27;19924;-56
2022/10/25 10:24:26;;;;;;;;;;;;;;;;;;5129994;27;19931;-58
2022/10/25 10:26:56;;;;;;;;;;;;;;;;;;5129620;27;19970;-54
2022/10/25 10:29:24;;;;;;;;;;;;;;;;;;5129497;27;20013;-55
2022/10/25 10:31:52;;;;;;;;;;;;;;;;;;5126751;27;20296;-54
2022/10/25 10:34:26;;;;;;;;;;;;;;;;;;5115864;28;19928;-55
2022/10/25 10:37:03;;;;;;;;;;;;;;;;;;5115699;28;19923;-57
2022/10/25 10:39:29;;;;;;;;;;;;;;;;;;5115532;28;20273;-55
2022/10/25 10:42:01;;;;;;;;;;;;;;;;;;5115378;28;19928;-58
2022/10/25 10:44:33;;;;;;;;;;;;;;;;;;5115903;28;20265;-58
2022/10/25 10:47:00;;;;;;;;;;;;;;;;;;5115882;28;19923;-56
2022/10/25 10:49:33;;;;;;;;;;;;;;;;;;5115406;28;19927;-55
2022/10/25 10:52:01;;;;;;;;;;;;;;;;;;5115390;28;19924;-57
2022/10/25 10:54:29;;;;;;;;;;;;;;;;;;5115556;28;20026;-56
2022/10/25 10:56:56;;;;;;;;;;;;;;;;;;5115265;28;19927;-57
2022/10/25 10:59:28;;;;;;;;;;;;;;;;;;5115145;28;19928;-56
2022/10/25 11:01:56;;;;;;;;;;;;;;;;;;5114986;28;20384;-56
2022/10/25 11:04:22;;;;;;;;;;;;;;;;;;5115044;27;19924;-54
2022/10/25 11:06:49;;;;;;;;;;;;;;;;;;5114856;28;19927;-56
2022/10/25 11:09:19;;;;;;;;;;;;;;;;;;5114765;28;19931;-57
2022/10/25 11:12:04;;;;;;;;;;;;;;;;;;5114951;28;19932;-56
2022/10/25 11:14:30;;;;;;;;;;;;;;;;;;5115126;28;19923;-56
2022/10/25 11:17:02;;;;;;;;;;;;;;;;;;5114902;28;19923;-58
2022/10/25 11:19:39;;;;;;;;;;;;;;;;;;5114759;28;19923;-55
2022/10/25 11:22:11;;;;;;;;;;;;;;;;;;5114588;28;19979;-56
2022/10/25 11:24:44;;;;;;;;;;;;;;;;;;5114964;28;19923;-53
2022/10/25 11:27:15;;;;;;;;;;;;;;;;;;5115003;28;19976;-57
2022/10/25 11:30:06;;;;;;;;;;;;;;;;;;5114768;27;19993;-57
2022/10/25 11:32:45;;;;;;;;;;;;;;;;;;5098911;28;19923;-57
2022/10/25 11:35:19;;;;;;;;;;;;;;;;;;5114825;28;19967;-57
2022/10/25 11:37:47;;;;;;;;;;;;;;;;;;5114604;28;19976;-57
2022/10/25 11:40:16;;;;;;;;;;;;;;;;;;5114493;28;19924;-56
2022/10/25 11:42:51;;;;;;;;;;;;;;;;;;5114446;28;20018;-55
2022/10/25 11:45:20;;;;;;;;;;;;;;;;;;5113754;27;20023;-56
2022/10/25 11:47:54;;;;;;;;;;;;;;;;;;5114287;28;19924;-54
2022/10/25 11:50:27;;;;;;;;;;;;;;;;;;5114416;28;19923;-56
2022/10/25 11:53:04;;;;;;;;;;;;;;;;;;5114504;28;20273;-56
2022/10/25 11:55:34;;;;;;;;;;;;;;;;;;5114555;28;20295;-55
2022/10/25 11:58:04;;;;;;;;;;;;;;;;;;5113971;28;20022;-54
2022/10/25 12:00:36;;;;;;;;;;;;;;;;;;5114262;28;19942;-56
2022/10/25 12:03:18;;;;;;;;;;;;;;;;;;5107227;28;19928;-56
2022/10/25 12:05:49;;;;;;;;;;;;;;;;;;5093543;28;19924;-56
2022/10/25 12:08:22;;;;;;;;;;;;;;;;;;5093208;28;19928;-53
2022/10/25 12:10:51;;;;;;;;;;;;;;;;;;5093673;28;19985;-55
2022/10/25 12:13:19;;;;;;;;;;;;;;;;;;5093392;28;19931;-54
2022/10/25 12:15:47;;;;;;;;;;;;;;;;;;5093680;28;19946;-57
2022/10/25 12:18:17;;;;;;;;;;;;;;;;;;5092964;28;19927;-56
2022/10/25 12:20:45;;;;;;;;;;;;;;;;;;5093955;28;20357;-56
2022/10/25 12:23:14;;;;;;;;;;;;;;;;;;5093125;28;19924;-55
2022/10/25 12:25:41;;;;;;;;;;;;;;;;;;5104541;28;19923;-58
2022/10/25 12:28:13;;;;;;;;;;;;;;;;;;5113135;28;19984;-58
2022/10/25 12:30:39;;;;;;;;;;;;;;;;;;5113237;28;19993;-57
2022/10/25 12:33:13;;;;;;;;;;;;;;;;;;5113387;28;20392;-58
2022/10/25 12:35:43;;;;;;;;;;;;;;;;;;5113220;28;19969;-57
2022/10/25 12:38:12;;;;;;;;;;;;;;;;;;5113468;28;19994;-58
2022/10/25 12:40:41;;;;;;;;;;;;;;;;;;5113301;28;19969;-56
2022/10/25 12:43:13;;;;;;;;;;;;;;;;;;5113166;28;19924;-57
2022/10/25 12:45:46;;;;;;;;;;;;;;;;;;5113348;28;19977;-55
2022/10/25 12:48:19;;;;;;;;;;;;;;;;;;5112814;28;19930;-57
2022/10/25 12:50:54;;;;;;;;;;;;;;;;;;5113216;28;19947;-55
2022/10/25 12:53:53;;;;;;;;;;;;;;;;;;5113080;28;19931;-55
2022/10/25 12:56:26;;;;;;;;;;;;;;;;;;5049718;28;19994;-57
2022/10/25 12:58:59;;;;;;;;;;;;;;;;;;5049685;28;20352;-54
2022/10/25 13:01:31;;;;;;;;;;;;;;;;;;5082843;28;19931;-56
2022/10/25 13:04:13;;;;;;;;;;;;;;;;;;5112791;27;19984;-55
2022/10/25 13:06:43;;;;;;;;;;;;;;;;;;5112923;28;19923;-56
2022/10/25 13:09:10;;;;;;;;;;;;;;;;;;5112456;28;19924;-56
2022/10/25 13:11:38;;;;;;;;;;;;;;;;;;5112599;28;19928;-54
2022/10/25 13:14:13;;;;;;;;;;;;;;;;;;5112603;28;20310;-58
2022/10/25 13:16:39;;;;;;;;;;;;;;;;;;5112904;28;19970;-58
2022/10/25 13:19:16;;;;;;;;;;;;;;;;;;5112329;28;19928;-56
2022/10/25 13:22:01;;;;;;;;;;;;;;;;;;5112689;28;20327;-56
2022/10/25 13:24:39;;;;;;;;;;;;;;;;;;5112599;28;19924;-56
2022/10/25 13:27:21;;;;;;;;;;;;;;;;;;5112569;28;20361;-53
2022/10/25 13:29:49;;;;;;;;;;;;;;;;;;5112450;28;20341;-56
2022/10/25 13:32:16;;;;;;;;;;;;;;;;;;5112405;28;19984;-54
2022/10/25 13:34:43;;;;;;;;;;;;;;;;;;5112432;28;20010;-56
2022/10/25 13:37:24;;;;;;;;;;;;;;;;;;5112482;28;19977;-56
2022/10/25 13:39:54;;;;;;;;;;;;;;;;;;5112159;28;19924;-57
2022/10/25 13:42:23;;;;;;;;;;;;;;;;;;5112550;28;20404;-57
2022/10/25 13:44:53;;;;;;;;;;;;;;;;;;5112486;28;19923;-57
2022/10/25 13:47:28;;;;;;;;;;;;;;;;;;5112291;28;20295;-57
2022/10/25 13:49:54;;;;;;;;;;;;;;;;;;5112110;28;19924;-57
2022/10/25 13:52:23;;;;;;;;;;;;;;;;;;5112457;28;19928;-57
2022/10/25 13:54:51;;;;;;;;;;;;;;;;;;5112367;28;19946;-56
2022/10/25 13:57:45;;;;;;;;;;;;;;;;;;5112409;28;19928;-56
2022/10/25 14:00:26;;;;;;;;;;;;;;;;;;5075501;28;19923;-56
2022/10/25 14:03:11;;;;;;;;;;;;;;;;;;5107175;28;19924;-57
2022/10/25 14:05:59;;;;;;;;;;;;;;;;;;5091788;28;19978;-56
2022/10/25 14:08:27;;;;;;;;;;;;;;;;;;5093997;28;19931;-57
2022/10/25 14:10:54;;;;;;;;;;;;;;;;;;5095642;28;19924;-56
2022/10/25 14:13:22;;;;;;;;;;;;;;;;;;5095762;28;19928;-56
2022/10/25 14:15:54;;;;;;;;;;;;;;;;;;5095727;28;19964;-56
2022/10/25 14:18:22;;;;;;;;;;;;;;;;;;5095494;28;20018;-57
2022/10/25 14:20:50;;;;;;;;;;;;;;;;;;5095572;28;20270;-56
2022/10/25 14:23:20;;;;;;;;;;;;;;;;;;5095155;28;19928;-57
2022/10/25 14:25:50;;;;;;;;;;;;;;;;;;5095520;28;19928;-54
2022/10/25 14:28:20;;;;;;;;;;;;;;;;;;5095156;28;20312;-57
2022/10/25 14:30:48;;;;;;;;;;;;;;;;;;5095163;28;19928;-57
2022/10/25 14:33:22;;;;;;;;;;;;;;;;;;5095238;28;19924;-56
2022/10/25 14:35:50;;;;;;;;;;;;;;;;;;5095271;28;20445;-57
2022/10/25 14:38:17;;;;;;;;;;;;;;;;;;5094887;28;19924;-57
2022/10/25 14:40:50;;;;;;;;;;;;;;;;;;5095305;28;19924;-55
2022/10/25 14:43:23;;;;;;;;;;;;;;;;;;5095093;28;20400;-56
2022/10/25 14:45:57;;;;;;;;;;;;;;;;;;5095102;28;20343;-55
2022/10/25 14:48:25;;;;;;;;;;;;;;;;;;5094688;28;19924;-56
2022/10/25 14:50:52;;;;;;;;;;;;;;;;;;5094999;28;20289;-57
2022/10/25 14:53:19;;;;;;;;;;;;;;;;;;5094991;28;19931;-55
2022/10/25 14:55:51;;;;;;;;;;;;;;;;;;5094808;28;19978;-56
2022/10/25 14:58:17;;;;;;;;;;;;;;;;;;5094462;28;19928;-56
2022/10/25 15:00:52;;;;;;;;;;;;;;;;;;5094597;28;19924;-56
2022/10/25 15:03:18;;;;;;;;;;;;;;;;;;5103652;28;19923;-56
2022/10/25 15:05:46;;;;;;;;;;;;;;;;;;5115285;28;19924;-57
2022/10/25 15:08:17;;;;;;;;;;;;;;;;;;5114885;28;19977;-57
2022/10/25 15:10:44;;;;;;;;;;;;;;;;;;5115222;28;19985;-56
2022/10/25 15:13:15;;;;;;;;;;;;;;;;;;5114989;28;19931;-55
2022/10/25 15:15:43;;;;;;;;;;;;;;;;;;5114934;28;19923;-56
2022/10/25 15:18:20;;;;;;;;;;;;;;;;;;5114520;28;19934;-56
2022/10/25 15:20:50;;;;;;;;;;;;;;;;;;5114990;28;19932;-57
2022/10/25 15:23:19;;;;;;;;;;;;;;;;;;5114947;28;20367;-57
2022/10/25 15:25:46;;;;;;;;;;;;;;;;;;5114710;28;20014;-57
2022/10/25 15:28:13;;;;;;;;;;;;;;;;;;5114660;28;19930;-59
2022/10/25 15:30:42;;;;;;;;;;;;;;;;;;5114687;28;19924;-57
2022/10/25 15:33:10;;;;;;;;;;;;;;;;;;5114718;28;19924;-56
2022/10/25 15:35:41;;;;;;;;;;;;;;;;;;5114599;28;20031;-54
2022/10/25 15:38:10;;;;;;;;;;;;;;;;;;5114335;28;19935;-56
2022/10/25 15:40:38;;;;;;;;;;;;;;;;;;5114542;28;19928;-58
2022/10/25 15:43:04;;;;;;;;;;;;;;;;;;5114678;28;20018;-58
2022/10/25 15:45:31;;;;;;;;;;;;;;;;;;5114364;28;19950;-54
2022/10/25 15:47:58;;;;;;;;;;;;;;;;;;5114329;28;20026;-56
2022/10/25 15:50:25;;;;;;;;;;;;;;;;;;5114178;28;19924;-55
2022/10/25 15:52:52;;;;;;;;;;;;;;;;;;5114171;28;19959;-58
2022/10/25 15:55:21;;;;;;;;;;;;;;;;;;5114148;28;19924;-56
2022/10/25 15:57:51;;;;;;;;;;;;;;;;;;5114382;28;19934;-57
2022/10/25 16:00:19;;;;;;;;;;;;;;;;;;5113909;28;20060;-54
2022/10/25 16:02:45;;;;;;;;;;;;;;;;;;5109821;28;19994;-57
2022/10/25 16:05:17;;;;;;;;;;;;;;;;;;5093625;28;19924;-57
2022/10/25 16:07:44;;;;;;;;;;;;;;;;;;5093715;28;19945;-56
2022/10/25 16:10:11;;;;;;;;;;;;;;;;;;5093322;28;19928;-57
2022/10/25 16:12:39;;;;;;;;;;;;;;;;;;5093593;28;19935;-56
2022/10/25 16:15:07;;;;;;;;;;;;;;;;;;5093613;28;19927;-57
2022/10/25 16:17:33;;;;;;;;;;;;;;;;;;5093461;28;19936;-58
2022/10/25 16:20:00;;;;;;;;;;;;;;;;;;5093270;28;20395;-56
2022/10/25 16:22:26;;;;;;;;;;;;;;;;;;5093473;28;19930;-53
2022/10/25 16:24:53;;;;;;;;;;;;;;;;;;5093322;28;19925;-58
2022/10/25 16:27:19;;;;;;;;;;;;;;;;;;5093271;28;19945;-57
2022/10/25 16:29:47;;;;;;;;;;;;;;;;;;5092651;28;19928;-53
2022/10/25 16:32:17;;;;;;;;;;;;;;;;;;5093386;28;20342;-57
2022/10/25 16:34:44;;;;;;;;;;;;;;;;;;5093493;28;20305;-57
2022/10/25 16:37:11;;;;;;;;;;;;;;;;;;5093460;28;20397;-54
2022/10/25 16:39:38;;;;;;;;;;;;;;;;;;5092887;28;19927;-56
2022/10/25 16:42:04;;;;;;;;;;;;;;;;;;5093232;28;19924;-56
2022/10/25 16:44:31;;;;;;;;;;;;;;;;;;5093079;28;19993;-54
2022/10/25 16:46:59;;;;;;;;;;;;;;;;;;5092893;28;20270;-56
2022/10/25 16:49:25;;;;;;;;;;;;;;;;;;5092905;28;19930;-55
2022/10/25 16:51:52;;;;;;;;;;;;;;;;;;5092727;28;19993;-54
2022/10/25 16:54:19;;;;;;;;;;;;;;;;;;5093062;28;19935;-57
2022/10/25 16:56:45;;;;;;;;;;;;;;;;;;5112682;28;19938;-57